首页
METAR-TAF:

METAR-TAF

机场 :

德梅因, 艾奥瓦州, 美国

纬度: 41-32-16N, 经度: 093-39-58W, 海拔: 291米

当前天气观测

该预报发布于39分钟前的07:54 UTC
风速5节,风向西南
温度 -12°C
湿度 78%
气压 1020 hPa
能見度: 16.1公里
少量云层高于10000英尺
少量云层高于20000英尺

METAR: KDSM 100754Z 22005KT 10SM FEW100 FEW200 M12/M15 A3011 RMK AO2 SLP214 T11221150 $

时间: 02:33 (08:33 UTC)

预报

该预报发布于3小时和13分钟前的05:20 UTC
预报有效从10日的 06点(UTC)到 11日的 06点(UTC)
风速11节,风向西北
能見度: 10公里
少量云层高于20000英尺
从 10日的 0700点(UTC)
风速6节,风向西转西北
能見度: 10公里
少量云层高于25000英尺
从 10日的 1000点(UTC)
风速6节,风向西转西北
能見度: 10公里
多云层高于4000英尺
从 10日的 1800点(UTC)
风速8节,风向西北,有时为15节阵风
能見度: 10公里
多云层高于3000英尺
从 10日的 1900点(UTC)
风速9节,风向西北,有时为15节阵风
能見度: 10公里
多云层高于5000英尺
从 11日的 0200点(UTC)
风速4节,风向南转西南
能見度: 10公里
多云层高于25000英尺

TAF: KDSM 100520Z 1006/1106 31011KT P6SM FEW200 FM100700 29006KT P6SM FEW250 FM101000 30006KT P6SM BKN040 FM101800 31008G15KT P6SM BKN030 FM101900 31009G15KT P6SM BKN050 FM110200 21004KT P6SM BKN250

超过4000个机场的气象观测和天气预报(METAR&TAF报告)。

可查询的气象台以黄色和红色小点在地图上表示。

将鼠标移到小点上方,可查看气象台名称。

然后点击查看天气观测和预报。

如需切换地图:点击带黑十字的绿色按钮放大地图;点击带横线的绿色按钮缩小地图;或者点击绿色箭头查看邻近地区的地图。


METAR-TAF: